Time;durP1;ratioP1;P1;durP2;ratioP2;P2;SDS_P1;SDS_P2;PMS_P1;PMS_P2;Temp;Humidity;BMP_temperature;BMP_pressure;BME280_temperature;BME280_humidity;BME280_pressure;Samples;Min_cycle;Max_cycle;Signal;HPM_P1;HPM_P2
2023/07/20 00:00:27;;;;;;;3.97;2.13;;;15.00;99.90;;;;;;5099881;27;20032;-79
2023/07/20 00:03:09;;;;;;;2.30;2.00;;;15.00;99.90;;;;;;5106889;27;20538;-79
2023/07/20 00:05:35;;;;;;;3.25;2.15;;;14.90;99.90;;;;;;5111547;27;20106;-79
2023/07/20 00:08:00;;;;;;;2.75;2.30;;;15.00;99.90;;;;;;5082699;27;20043;-79
2023/07/20 00:10:26;;;;;;;3.45;2.40;;;14.90;99.90;;;;;;5100541;27;20062;-79
2023/07/20 00:12:51;;;;;;;3.42;2.80;;;15.00;99.90;;;;;;5097277;27;20281;-79
2023/07/20 00:15:17;;;;;;;3.25;2.38;;;14.90;99.90;;;;;;5083868;27;20036;-79
2023/07/20 00:17:44;;;;;;;2.65;2.38;;;14.90;99.90;;;;;;5104705;27;20081;-79
2023/07/20 00:20:11;;;;;;;2.80;2.30;;;14.90;99.90;;;;;;5100845;27;20515;-79
2023/07/20 00:22:36;;;;;;;3.35;2.50;;;14.90;99.90;;;;;;5097958;27;20074;-79
2023/07/20 00:25:03;;;;;;;2.85;2.50;;;14.90;99.90;;;;;;5097167;27;20074;-79
2023/07/20 00:27:28;;;;;;;3.85;2.40;;;14.90;99.90;;;;;;5082130;27;20054;-79
2023/07/20 00:29:54;;;;;;;3.38;2.40;;;14.90;99.90;;;;;;5110570;27;20047;-79
2023/07/20 00:32:20;;;;;;;4.78;2.90;;;14.90;99.90;;;;;;5095346;27;20039;-79
2023/07/20 00:34:45;;;;;;;3.05;2.63;;;14.80;99.90;;;;;;5098542;27;20382;-79
2023/07/20 00:37:11;;;;;;;3.17;2.33;;;14.80;99.90;;;;;;5080390;28;20419;-79
2023/07/20 00:39:37;;;;;;;3.78;2.80;;;14.80;99.90;;;;;;5084639;28;20067;-79
2023/07/20 00:42:03;;;;;;;3.88;3.00;;;14.80;99.90;;;;;;5096338;27;20078;-79
2023/07/20 00:44:28;;;;;;;4.40;2.90;;;14.80;99.90;;;;;;5103394;27;20074;-79
2023/07/20 00:46:55;;;;;;;3.15;2.85;;;14.80;99.90;;;;;;5089827;27;20039;-79
2023/07/20 00:49:21;;;;;;;3.85;3.10;;;14.80;99.90;;;;;;5102225;27;20513;-79
2023/07/20 00:51:50;;;;;;;4.22;3.30;;;14.70;99.90;;;;;;5083274;27;20448;-79
2023/07/20 00:54:16;;;;;;;4.50;3.50;;;14.70;99.90;;;;;;5103935;27;20039;-79
2023/07/20 00:56:42;;;;;;;4.07;3.10;;;14.60;99.90;;;;;;5117415;27;20435;-79
2023/07/20 00:59:09;;;;;;;3.83;3.10;;;14.50;99.90;;;;;;5096501;27;20121;-78
2023/07/20 01:01:35;;;;;;;5.20;3.55;;;14.50;99.90;;;;;;5118851;27;20077;-79
2023/07/20 01:04:00;;;;;;;4.65;3.30;;;14.40;99.90;;;;;;5104585;27;20746;-79
2023/07/20 01:06:33;;;;;;;3.97;3.50;;;14.30;99.90;;;;;;5087767;27;20046;-79
2023/07/20 01:09:26;;;;;;;4.43;3.35;;;14.20;99.90;;;;;;5117442;27;20047;-79
2023/07/20 01:12:06;;;;;;;5.05;3.55;;;14.20;99.90;;;;;;5100849;27;20035;-78
2023/07/20 01:14:33;;;;;;;5.05;3.78;;;14.20;99.90;;;;;;5098725;27;20027;-79
2023/07/20 01:16:59;;;;;;;4.40;3.78;;;14.10;99.90;;;;;;5081796;27;20115;-79
2023/07/20 01:19:25;;;;;;;4.80;3.78;;;14.10;99.90;;;;;;5102697;27;20495;-79
2023/07/20 01:22:12;;;;;;;5.32;4.13;;;14.00;99.90;;;;;;5079347;27;20039;-79
2023/07/20 01:24:56;;;;;;;5.15;3.95;;;14.00;99.90;;;;;;5116173;27;20442;-80
2023/07/20 01:27:36;;;;;;;5.45;4.20;;;13.90;99.90;;;;;;5082977;27;20026;-79
2023/07/20 01:30:14;;;;;;;5.22;4.55;;;13.80;99.90;;;;;;5095361;27;20046;-79
2023/07/20 01:32:42;;;;;;;6.05;3.90;;;13.80;99.90;;;;;;5085396;27;20035;-79
2023/07/20 01:35:14;;;;;;;6.53;5.20;;;13.70;99.90;;;;;;5099510;27;20066;-79
2023/07/20 01:37:41;;;;;;;6.43;5.00;;;13.70;99.90;;;;;;5116599;27;20600;-79
2023/07/20 01:40:08;;;;;;;6.47;5.18;;;13.70;99.90;;;;;;5086606;27;20050;-79
2023/07/20 01:42:34;;;;;;;5.85;4.80;;;13.60;99.90;;;;;;5088338;27;20056;-79
2023/07/20 01:45:00;;;;;;;6.07;4.90;;;13.60;99.90;;;;;;5098736;27;20058;-79
2023/07/20 01:47:26;;;;;;;6.25;5.03;;;13.50;99.90;;;;;;5100668;27;20080;-79
2023/07/20 01:49:51;;;;;;;6.00;5.10;;;13.60;99.90;;;;;;5094046;27;20502;-79
2023/07/20 01:52:17;;;;;;;6.90;5.68;;;13.50;99.90;;;;;;5104843;27;20035;-79
2023/07/20 01:54:43;;;;;;;7.10;5.20;;;13.50;99.90;;;;;;5115449;27;20036;-79
2023/07/20 01:57:08;;;;;;;6.38;4.97;;;13.40;99.90;;;;;;5106462;27;20039;-80
2023/07/20 01:59:34;;;;;;;7.20;6.22;;;13.30;99.90;;;;;;5100992;27;20048;-79
2023/07/20 02:02:00;;;;;;;7.13;5.57;;;13.40;99.90;;;;;;5084742;27;20126;-79
2023/07/20 02:04:28;;;;;;;6.97;5.53;;;13.30;99.90;;;;;;5090975;27;20118;-80
2023/07/20 02:06:54;;;;;;;6.47;5.22;;;13.30;99.90;;;;;;5084742;27;20511;-79
2023/07/20 02:09:20;;;;;;;7.05;6.00;;;13.30;99.90;;;;;;5096923;27;20104;-79
2023/07/20 02:11:45;;;;;;;7.90;6.15;;;13.20;99.90;;;;;;5115860;27;20507;-80
2023/07/20 02:14:11;;;;;;;8.23;5.90;;;13.20;99.90;;;;;;5087508;27;20027;-80
2023/07/20 02:16:37;;;;;;;7.97;6.07;;;13.20;99.90;;;;;;5100673;27;20043;-80
2023/07/20 02:19:04;;;;;;;8.40;6.18;;;13.20;99.90;;;;;;5085830;27;20043;-79
2023/07/20 02:21:29;;;;;;;8.25;6.35;;;13.10;99.90;;;;;;5087404;27;20421;-80
2023/07/20 02:23:55;;;;;;;7.90;6.05;;;13.10;99.90;;;;;;5087381;27;20031;-80
2023/07/20 02:26:20;;;;;;;7.15;5.78;;;13.10;99.90;;;;;;5102745;27;20490;-80
2023/07/20 02:28:46;;;;;;;7.93;6.43;;;13.10;99.90;;;;;;5092725;27;20113;-80
2023/07/20 02:31:12;;;;;;;7.15;5.95;;;13.00;99.90;;;;;;5092735;27;20103;-80
2023/07/20 02:33:38;;;;;;;8.07;6.07;;;13.00;99.90;;;;;;5104726;27;20087;-79
2023/07/20 02:36:03;;;;;;;7.60;5.90;;;12.90;99.90;;;;;;5089789;27;20278;-80
2023/07/20 02:38:29;;;;;;;6.93;5.88;;;12.90;99.90;;;;;;5086638;27;20408;-79
2023/07/20 02:40:55;;;;;;;7.57;6.00;;;12.90;99.90;;;;;;5123058;27;20062;-79
2023/07/20 02:43:20;;;;;;;10.70;6.32;;;12.80;99.90;;;;;;5132854;27;20141;-80
2023/07/20 02:45:46;;;;;;;6.40;5.65;;;12.80;99.90;;;;;;5106757;27;20037;-80
2023/07/20 02:48:11;;;;;;;7.10;6.00;;;12.80;99.90;;;;;;5100111;27;20496;-80
2023/07/20 02:50:37;;;;;;;9.35;6.75;;;12.70;99.90;;;;;;5136547;27;20090;-80
2023/07/20 02:53:03;;;;;;;8.20;6.53;;;12.70;99.90;;;;;;5087385;27;20102;-80
2023/07/20 02:55:28;;;;;;;8.68;6.53;;;12.70;99.90;;;;;;5122024;27;20047;-80
2023/07/20 02:57:57;;;;;;;7.72;6.13;;;12.70;99.90;;;;;;5097122;27;20043;-79
2023/07/20 03:00:23;;;;;;;8.70;7.00;;;12.60;99.90;;;;;;5104342;27;20061;-80
2023/07/20 03:02:48;;;;;;;7.45;6.45;;;12.60;99.90;;;;;;5091804;27;20134;-79
2023/07/20 03:05:16;;;;;;;8.57;6.38;;;12.50;99.90;;;;;;5106987;27;20118;-80
2023/07/20 03:07:43;;;;;;;6.85;6.15;;;12.50;99.90;;;;;;5108609;27;20034;-80
2023/07/20 03:10:09;;;;;;;7.72;5.88;;;12.50;99.90;;;;;;5122122;27;20134;-79
2023/07/20 03:12:35;;;;;;;7.75;5.93;;;12.40;99.90;;;;;;5106058;27;20023;-80
2023/07/20 03:15:02;;;;;;;6.25;5.32;;;12.40;99.90;;;;;;5117236;27;20436;-79
2023/07/20 03:17:28;;;;;;;7.25;5.63;;;12.40;99.90;;;;;;5091285;27;20114;-80
2023/07/20 03:19:54;;;;;;;7.30;5.85;;;12.40;99.90;;;;;;5089959;27;20114;-80
2023/07/20 03:22:21;;;;;;;6.75;5.43;;;12.30;99.90;;;;;;5122025;27;20107;-80
2023/07/20 03:24:47;;;;;;;8.57;5.70;;;12.30;99.90;;;;;;5105156;27;20534;-80
2023/07/20 03:27:13;;;;;;;6.47;5.25;;;12.20;99.90;;;;;;5108223;27;20300;-79
2023/07/20 03:29:38;;;;;;;6.63;5.55;;;12.20;99.90;;;;;;5110226;27;20034;-80
2023/07/20 03:32:04;;;;;;;6.40;5.45;;;12.20;99.90;;;;;;5090330;27;20035;-79
2023/07/20 03:34:30;;;;;;;6.55;5.07;;;12.20;99.90;;;;;;5125890;27;20042;-80
2023/07/20 03:36:55;;;;;;;6.45;5.30;;;12.10;99.90;;;;;;5081675;27;20036;-80
2023/07/20 03:39:22;;;;;;;7.13;5.18;;;12.10;99.90;;;;;;5087896;27;20034;-79
2023/07/20 03:41:48;;;;;;;6.03;5.30;;;12.10;99.90;;;;;;5107312;27;20074;-80
2023/07/20 03:44:14;;;;;;;5.93;5.18;;;12.10;99.90;;;;;;5101721;27;20511;-80
2023/07/20 03:46:39;;;;;;;5.75;4.50;;;12.10;99.90;;;;;;5119949;27;20067;-80
2023/07/20 03:49:08;;;;;;;6.60;4.43;;;12.10;99.90;;;;;;5109107;27;20043;-80
2023/07/20 03:51:35;;;;;;;6.00;5.40;;;12.00;99.90;;;;;;5118250;27;20131;-80
2023/07/20 03:54:00;;;;;;;7.00;5.10;;;12.00;99.90;;;;;;5081105;27;20510;-79
2023/07/20 03:56:26;;;;;;;7.88;4.85;;;12.00;99.90;;;;;;5096289;27;20035;-80
2023/07/20 03:58:52;;;;;;;6.00;4.65;;;12.00;99.90;;;;;;5084626;27;20113;-79
2023/07/20 04:01:17;;;;;;;6.60;4.72;;;12.00;99.90;;;;;;5087801;27;20039;-79
2023/07/20 04:03:43;;;;;;;5.80;5.30;;;12.00;99.90;;;;;;5130822;27;20043;-80
2023/07/20 04:06:09;;;;;;;7.25;5.20;;;11.90;99.90;;;;;;5100994;27;20122;-80
2023/07/20 04:08:36;;;;;;;5.63;5.00;;;11.90;99.90;;;;;;5088087;27;20038;-79
2023/07/20 04:11:02;;;;;;;5.78;5.28;;;12.10;99.90;;;;;;5115902;27;20547;-79
2023/07/20 04:13:28;;;;;;;8.65;5.35;;;12.00;99.90;;;;;;5113045;27;20043;-79
2023/07/20 04:15:55;;;;;;;5.45;4.90;;;12.10;99.90;;;;;;5103794;27;20324;-79
2023/07/20 04:18:20;;;;;;;6.93;4.93;;;12.00;99.90;;;;;;5106136;27;20118;-80
2023/07/20 04:20:46;;;;;;;6.90;4.85;;;12.00;99.90;;;;;;5103937;27;20456;-80
2023/07/20 04:23:14;;;;;;;6.15;4.85;;;12.00;99.90;;;;;;5091862;27;20059;-80
2023/07/20 04:25:40;;;;;;;6.50;4.72;;;12.00;99.90;;;;;;5105365;27;20564;-80
2023/07/20 04:28:09;;;;;;;7.50;5.05;;;12.00;99.90;;;;;;5089260;27;20039;-80
2023/07/20 04:30:36;;;;;;;5.72;4.55;;;12.00;99.90;;;;;;5123628;27;20082;-80
2023/07/20 04:33:03;;;;;;;7.65;4.70;;;12.10;99.90;;;;;;5122966;27;20065;-80
2023/07/20 04:35:48;;;;;;;5.30;4.25;;;12.20;99.90;;;;;;5097620;27;20043;-80
2023/07/20 04:38:17;;;;;;;7.93;4.63;;;12.20;99.90;;;;;;5098923;27;20065;-80
2023/07/20 04:40:44;;;;;;;6.35;4.15;;;12.30;99.90;;;;;;5100743;27;20057;-80
2023/07/20 04:43:10;;;;;;;6.68;4.25;;;12.40;99.90;;;;;;5115609;27;20052;-79
2023/07/20 04:45:36;;;;;;;5.95;4.05;;;12.30;99.90;;;;;;5100653;27;20038;-79
2023/07/20 04:48:02;;;;;;;6.55;5.10;;;12.40;99.90;;;;;;5098145;27;20039;-79
2023/07/20 04:50:28;;;;;;;5.68;4.78;;;12.40;99.90;;;;;;5104759;27;20111;-79
2023/07/20 04:52:53;;;;;;;5.63;4.47;;;12.40;99.90;;;;;;5089851;27;20035;-80
2023/07/20 04:55:23;;;;;;;4.85;4.25;;;12.40;99.90;;;;;;5104632;27;20410;-79
2023/07/20 04:57:49;;;;;;;7.28;4.43;;;12.50;99.90;;;;;;5100173;27;20482;-79
2023/07/20 05:00:15;;;;;;;5.47;4.90;;;12.50;99.90;;;;;;5113669;27;20062;-80
2023/07/20 05:02:43;;;;;;;7.15;4.35;;;12.70;99.90;;;;;;5103238;27;20043;-80
2023/07/20 05:05:12;;;;;;;9.02;4.70;;;12.80;99.90;;;;;;5102252;27;20039;-79
2023/07/20 05:07:38;;;;;;;5.18;4.22;;;13.00;99.90;;;;;;5084879;27;20046;-80
2023/07/20 05:10:04;;;;;;;5.75;4.07;;;13.20;99.90;;;;;;5106651;27;20036;-79
2023/07/20 05:12:29;;;;;;;6.93;4.55;;;13.20;99.90;;;;;;5115831;27;20372;-79
2023/07/20 05:14:55;;;;;;;7.22;4.63;;;13.40;99.90;;;;;;5087425;27;20123;-79
2023/07/20 05:17:21;;;;;;;5.85;4.57;;;13.50;99.90;;;;;;5080596;27;20865;-79
2023/07/20 05:19:46;;;;;;;6.45;4.30;;;13.50;99.90;;;;;;5105656;27;20394;-80
2023/07/20 05:22:14;;;;;;;10.13;4.70;;;13.60;99.90;;;;;;5093944;27;20283;-80
2023/07/20 05:24:40;;;;;;;8.00;4.32;;;13.60;99.90;;;;;;5089603;27;20039;-80
2023/07/20 05:27:05;;;;;;;6.05;3.97;;;13.50;99.90;;;;;;5101752;27;20047;-80
2023/07/20 05:29:31;;;;;;;5.38;3.80;;;13.60;99.90;;;;;;5103179;27;20064;-80
2023/07/20 05:31:57;;;;;;;4.75;4.07;;;13.60;99.90;;;;;;5099088;27;20037;-80
2023/07/20 05:34:23;;;;;;;4.53;3.72;;;13.50;99.90;;;;;;5089740;27;20039;-79
2023/07/20 05:36:49;;;;;;;5.28;3.75;;;13.60;99.90;;;;;;5113926;27;20290;-79
2023/07/20 05:39:17;;;;;;;4.82;3.20;;;13.70;99.90;;;;;;5108635;27;20031;-80
2023/07/20 05:41:42;;;;;;;5.60;3.85;;;13.80;99.90;;;;;;5085312;27;20039;-79
2023/07/20 05:44:08;;;;;;;4.50;3.75;;;14.10;99.90;;;;;;5080827;28;20154;-79
2023/07/20 05:46:34;;;;;;;4.97;3.30;;;14.20;99.90;;;;;;5084144;27;20044;-79
2023/07/20 05:49:00;;;;;;;4.75;3.30;;;14.20;99.90;;;;;;5081891;28;20503;-79
2023/07/20 05:51:25;;;;;;;4.22;3.35;;;14.40;99.90;;;;;;5094275;27;20240;-79
2023/07/20 05:53:51;;;;;;;4.90;3.60;;;14.50;99.90;;;;;;5094535;28;20582;-79
2023/07/20 05:56:17;;;;;;;5.40;3.28;;;14.50;99.90;;;;;;5097161;27;20035;-79
2023/07/20 05:58:42;;;;;;;4.18;3.58;;;14.50;99.90;;;;;;5097129;27;20088;-80
2023/07/20 06:01:08;;;;;;;3.95;2.95;;;14.60;99.90;;;;;;5076162;28;20458;-80
2023/07/20 06:03:34;;;;;;;3.83;3.28;;;14.70;99.90;;;;;;5075934;28;20052;-79
2023/07/20 06:06:01;;;;;;;4.03;3.20;;;14.80;99.90;;;;;;5074031;28;20421;-79
2023/07/20 06:08:28;;;;;;;4.95;3.30;;;14.80;99.90;;;;;;5079479;28;20107;-80
2023/07/20 06:10:54;;;;;;;5.53;3.17;;;15.00;99.90;;;;;;5094501;28;20040;-79
2023/07/20 06:13:21;;;;;;;7.85;2.85;;;15.00;99.90;;;;;;5084135;28;20043;-80
2023/07/20 06:15:47;;;;;;;5.30;2.40;;;15.10;99.90;;;;;;5096028;28;20521;-80
2023/07/20 06:18:13;;;;;;;4.15;2.47;;;15.20;99.90;;;;;;5097283;28;20027;-79
2023/07/20 06:20:39;;;;;;;3.88;2.25;;;15.20;99.90;;;;;;5084113;28;20061;-80
2023/07/20 06:23:05;;;;;;;2.63;2.17;;;15.30;99.90;;;;;;5089880;28;20723;-80
2023/07/20 06:25:30;;;;;;;2.67;2.22;;;15.30;99.90;;;;;;5097651;28;20039;-80
2023/07/20 06:27:56;;;;;;;2.95;2.35;;;15.40;99.90;;;;;;5084571;28;20236;-80
2023/07/20 06:30:22;;;;;;;3.22;2.28;;;15.50;99.90;;;;;;5093325;28;20163;-80
2023/07/20 06:32:51;;;;;;;2.60;2.28;;;15.60;99.90;;;;;;5092931;28;20152;-80
2023/07/20 06:35:17;;;;;;;4.32;2.10;;;15.70;99.90;;;;;;5096535;28;20443;-80
2023/07/20 06:37:43;;;;;;;3.38;1.83;;;15.80;99.90;;;;;;5105186;28;20120;-79
2023/07/20 06:40:09;;;;;;;3.45;1.67;;;15.80;99.90;;;;;;5081760;28;20243;-80
2023/07/20 06:42:35;;;;;;;2.78;2.00;;;15.90;99.90;;;;;;5099500;27;20047;-79
2023/07/20 06:45:01;;;;;;;4.20;2.25;;;16.00;99.90;;;;;;5106918;27;20066;-79
2023/07/20 06:47:27;;;;;;;5.35;2.13;;;16.10;99.90;;;;;;5097956;27;20071;-79
2023/07/20 06:49:52;;;;;;;2.28;1.70;;;16.20;99.90;;;;;;5086555;27;20078;-79
2023/07/20 06:52:18;;;;;;;2.38;1.63;;;16.40;99.90;;;;;;5100716;27;20121;-80
2023/07/20 06:54:44;;;;;;;2.15;1.30;;;16.50;99.90;;;;;;5130376;27;20071;-79
2023/07/20 06:57:10;;;;;;;3.53;1.23;;;16.40;99.90;;;;;;5102056;27;20393;-79
2023/07/20 06:59:35;;;;;;;3.83;1.40;;;16.50;99.90;;;;;;5099197;27;20127;-80
2023/07/20 07:02:01;;;;;;;3.15;1.30;;;16.60;99.90;;;;;;5085094;27;20113;-80
2023/07/20 07:04:27;;;;;;;2.40;1.15;;;16.60;99.90;;;;;;5098176;27;20501;-80
2023/07/20 07:06:53;;;;;;;1.40;1.23;;;16.60;99.90;;;;;;5102222;27;20031;-80
2023/07/20 07:09:18;;;;;;;1.88;1.40;;;16.50;99.90;;;;;;5098538;27;20383;-80
2023/07/20 07:11:47;;;;;;;2.30;1.10;;;16.80;99.90;;;;;;5088453;27;20039;-80
2023/07/20 07:14:13;;;;;;;1.50;1.35;;;16.90;99.90;;;;;;5116661;27;20035;-80
2023/07/20 07:16:39;;;;;;;3.78;1.60;;;16.90;99.90;;;;;;5122996;27;20042;-80
2023/07/20 07:19:05;;;;;;;2.78;1.40;;;17.00;99.90;;;;;;5089137;27;20031;-79
2023/07/20 07:21:31;;;;;;;3.08;1.33;;;17.00;99.90;;;;;;5102909;27;20031;-80
2023/07/20 07:23:57;;;;;;;2.85;1.48;;;17.00;99.90;;;;;;5099999;27;20039;-80
2023/07/20 07:26:24;;;;;;;6.88;1.92;;;17.30;99.90;;;;;;5101766;27;20082;-79
2023/07/20 07:28:49;;;;;;;3.92;1.65;;;17.20;99.90;;;;;;5107189;27;20039;-79
2023/07/20 07:31:15;;;;;;;3.50;1.60;;;17.40;99.90;;;;;;5093316;27;20458;-80
2023/07/20 07:33:41;;;;;;;2.88;1.35;;;17.40;99.90;;;;;;5125486;27;20046;-80
2023/07/20 07:36:07;;;;;;;4.07;1.45;;;17.50;99.90;;;;;;5103095;27;20035;-80
2023/07/20 07:38:32;;;;;;;1.85;1.17;;;17.50;99.90;;;;;;5107689;27;20090;-80
2023/07/20 07:40:59;;;;;;;4.60;1.70;;;17.50;99.90;;;;;;5103542;27;20043;-80
2023/07/20 07:43:24;;;;;;;2.70;1.25;;;17.40;99.90;;;;;;5095911;27;20415;-80
2023/07/20 07:45:53;;;;;;;3.15;1.52;;;17.60;99.90;;;;;;5092964;27;20754;-80
2023/07/20 07:48:20;;;;;;;4.45;1.50;;;17.80;99.90;;;;;;5095715;27;20038;-79
2023/07/20 07:50:46;;;;;;;3.08;1.45;;;17.80;99.90;;;;;;5091805;27;20039;-80
2023/07/20 07:53:11;;;;;;;3.35;1.35;;;17.90;99.90;;;;;;5104603;27;20418;-80
2023/07/20 07:55:37;;;;;;;2.35;1.65;;;17.80;99.90;;;;;;5092823;27;20121;-79
2023/07/20 07:58:03;;;;;;;3.65;1.50;;;18.20;99.90;;;;;;5089970;27;20404;-80
2023/07/20 08:00:28;;;;;;;3.25;1.60;;;18.20;99.90;;;;;;5089916;27;20038;-80
2023/07/20 08:02:54;;;;;;;2.80;1.40;;;18.20;99.90;;;;;;5122147;27;20039;-80
2023/07/20 08:05:20;;;;;;;2.35;1.73;;;18.20;99.90;;;;;;5112133;27;20035;-80
2023/07/20 08:07:46;;;;;;;3.22;1.45;;;18.20;99.90;;;;;;5084412;27;20039;-80
2023/07/20 08:10:11;;;;;;;2.22;1.30;;;18.40;99.90;;;;;;5114767;27;20406;-80
2023/07/20 08:12:37;;;;;;;4.05;1.52;;;18.80;99.90;;;;;;5118039;27;20031;-80
2023/07/20 08:15:03;;;;;;;2.92;1.50;;;18.80;99.90;;;;;;5103244;27;20139;-80
2023/07/20 08:17:29;;;;;;;2.95;1.55;;;18.60;99.90;;;;;;5088201;27;20039;-80
2023/07/20 08:19:55;;;;;;;3.28;1.63;;;18.80;99.90;;;;;;5103375;27;20841;-80
2023/07/20 08:22:20;;;;;;;2.40;1.40;;;18.70;99.90;;;;;;5119329;27;20777;-80
2023/07/20 08:24:46;;;;;;;3.55;1.55;;;18.90;99.90;;;;;;5098447;27;20035;-80
2023/07/20 08:27:12;;;;;;;2.63;1.30;;;19.00;99.90;;;;;;5096584;27;21256;-80
2023/07/20 08:29:38;;;;;;;1.90;1.30;;;18.60;99.90;;;;;;5101054;27;20154;-80
2023/07/20 08:32:06;;;;;;;3.65;1.70;;;18.30;99.90;;;;;;5114609;27;20035;-80
2023/07/20 08:34:32;;;;;;;3.47;1.30;;;18.90;99.90;;;;;;5086909;27;20031;-80
2023/07/20 08:36:58;;;;;;;4.50;1.73;;;19.00;99.90;;;;;;5116044;27;20035;-80
2023/07/20 08:39:25;;;;;;;2.78;1.75;;;18.90;99.90;;;;;;5100056;27;20036;-80
2023/07/20 08:41:53;;;;;;;3.28;1.90;;;18.70;99.90;;;;;;5086033;27;20474;-80
2023/07/20 08:44:19;;;;;;;3.63;1.73;;;18.40;99.90;;;;;;5083391;27;20047;-80
2023/07/20 08:46:50;;;;;;;4.03;1.70;;;18.30;99.90;;;;;;5103569;27;20031;-80
2023/07/20 08:49:18;;;;;;;7.68;1.85;;;18.30;99.90;;;;;;5090278;27;20050;-80
2023/07/20 08:51:46;;;;;;;5.30;1.65;;;18.20;99.90;;;;;;5078301;27;20043;-80
2023/07/20 08:54:13;;;;;;;7.00;1.98;;;18.20;99.90;;;;;;5087906;27;20034;-80
2023/07/20 08:56:40;;;;;;;3.47;1.35;;;18.60;99.90;;;;;;5103688;27;20454;-80
2023/07/20 08:59:08;;;;;;;3.67;1.30;;;18.50;99.90;;;;;;5090068;27;20067;-80
2023/07/20 09:01:39;;;;;;;4.60;1.90;;;18.50;99.90;;;;;;5085908;27;20056;-80
2023/07/20 09:04:05;;;;;;;5.50;1.50;;;18.40;99.90;;;;;;5081925;27;20538;-80
2023/07/20 09:06:31;;;;;;;3.08;1.67;;;18.70;99.90;;;;;;5099649;27;20043;-80
2023/07/20 09:08:57;;;;;;;4.63;1.50;;;19.00;99.90;;;;;;5117778;27;20059;-80
2023/07/20 09:11:23;;;;;;;3.50;1.50;;;19.30;99.90;;;;;;5082663;27;20172;-80
2023/07/20 09:14:08;;;;;;;5.72;1.58;;;19.60;99.90;;;;;;5104137;27;20049;-80
2023/07/20 09:16:54;;;;;;;3.15;1.20;;;19.90;99.90;;;;;;5090428;27;20674;-80
2023/07/20 09:19:20;;;;;;;1.70;1.10;;;19.30;99.90;;;;;;5084809;27;20043;-80
2023/07/20 09:21:50;;;;;;;3.15;1.35;;;18.50;99.90;;;;;;5089040;27;20045;-80
2023/07/20 09:24:18;;;;;;;4.95;1.58;;;18.50;99.90;;;;;;5100946;27;20039;-80
2023/07/20 09:26:45;;;;;;;4.25;1.30;;;18.70;99.90;;;;;;5084599;27;20034;-80
2023/07/20 09:29:11;;;;;;;1.85;0.82;;;19.30;99.90;;;;;;5099729;27;20123;-80
2023/07/20 09:31:39;;;;;;;2.45;1.08;;;19.60;99.90;;;;;;5088264;27;20127;-80
2023/07/20 09:34:05;;;;;;;2.60;1.27;;;19.50;1.00;;;;;;5103106;27;20039;-80
2023/07/20 09:36:37;;;;;;;3.08;1.45;;;20.20;1.00;;;;;;5096240;27;20480;-80
2023/07/20 09:39:04;;;;;;;1.73;1.05;;;19.90;99.90;;;;;;5085441;27;20031;-80
2023/07/20 09:41:39;;;;;;;1.50;0.80;;;20.00;99.90;;;;;;5110029;27;20442;-80
2023/07/20 09:44:04;;;;;;;2.78;1.00;;;20.20;99.90;;;;;;5083327;27;20479;-80
2023/07/20 09:46:45;;;;;;;1.85;0.73;;;20.60;99.90;;;;;;5082906;27;20225;-79
2023/07/20 09:49:10;;;;;;;3.38;1.42;;;19.90;99.90;;;;;;5107477;27;20204;-80
2023/07/20 09:51:37;;;;;;;2.97;0.88;;;19.80;99.90;;;;;;5111323;27;20202;-80
2023/07/20 09:54:04;;;;;;;1.80;0.80;;;19.50;99.90;;;;;;5110745;27;20046;-80
2023/07/20 09:56:30;;;;;;;2.45;0.65;;;19.20;99.90;;;;;;5109512;27;20054;-80
2023/07/20 09:58:57;;;;;;;4.28;0.90;;;19.10;1.00;;;;;;5091033;27;20043;-80
2023/07/20 10:01:23;;;;;;;4.88;1.02;;;19.60;1.00;;;;;;5098842;27;20216;-80
2023/07/20 10:03:53;;;;;;;2.75;0.88;;;20.20;50.40;;;;;;5091147;27;20750;-80
2023/07/20 10:06:24;;;;;;;2.15;0.95;;;20.10;1.00;;;;;;5103667;27;20039;-79
2023/07/20 10:08:53;;;;;;;1.10;0.73;;;19.90;99.90;;;;;;5095975;27;20607;-80
2023/07/20 10:11:26;;;;;;;2.38;0.80;;;19.30;99.90;;;;;;5096843;27;20050;-80
2023/07/20 10:13:58;;;;;;;2.90;1.00;;;19.10;99.90;;;;;;5099745;27;20039;-80
2023/07/20 10:16:30;;;;;;;5.75;1.33;;;19.40;1.00;;;;;;5082076;27;20392;-80
2023/07/20 10:19:07;;;;;;;1.83;0.90;;;19.60;99.90;;;;;;5099974;27;20039;-80
2023/07/20 10:21:35;;;;;;;4.93;1.08;;;20.30;1.00;;;;;;5087307;27;20071;-80
2023/07/20 10:24:08;;;;;;;1.05;0.70;;;20.80;99.90;;;;;;5088186;27;20050;-80
2023/07/20 10:26:40;;;;;;;2.22;0.80;;;20.80;1.00;;;;;;5098132;27;20569;-80
2023/07/20 10:29:10;;;;;;;0.90;0.60;;;20.30;1.00;;;;;;5113834;27;20056;-80
2023/07/20 10:31:37;;;;;;;2.83;0.70;;;20.00;99.90;;;;;;5092887;27;20169;-80
2023/07/20 10:34:04;;;;;;;4.90;1.42;;;19.60;99.90;;;;;;5090253;27;20050;-80
2023/07/20 10:36:30;;;;;;;1.85;0.95;;;20.50;98.50;;;;;;5102399;27;20051;-80
2023/07/20 10:38:57;;;;;;;1.73;0.70;;;21.10;99.90;;;;;;5091005;27;20041;-80
2023/07/20 10:41:33;;;;;;;1.02;0.60;;;21.00;90.50;;;;;;5092291;27;20043;-80
2023/07/20 10:44:07;;;;;;;3.85;1.00;;;21.40;99.90;;;;;;5108823;27;20046;-80
2023/07/20 10:46:39;;;;;;;1.10;0.77;;;20.70;99.90;;;;;;5100176;27;20389;-80
2023/07/20 10:49:09;;;;;;;2.10;0.90;;;20.80;99.90;;;;;;5089293;27;20355;-80
2023/07/20 10:51:59;;;;;;;1.95;0.90;;;20.30;99.90;;;;;;5106180;27;20027;-80
2023/07/20 10:54:25;;;;;;;1.67;0.98;;;20.10;99.90;;;;;;5090995;27;20051;-80
2023/07/20 10:56:51;;;;;;;2.42;0.70;;;20.20;99.90;;;;;;5095128;27;20050;-80
2023/07/20 10:59:23;;;;;;;1.10;0.65;;;20.20;99.90;;;;;;5115639;27;20095;-80
2023/07/20 11:01:50;;;;;;;5.97;1.08;;;20.20;1.00;;;;;;5104258;27;20832;-80
2023/07/20 11:04:19;;;;;;;2.50;0.82;;;20.10;99.90;;;;;;5094735;27;20492;-80
2023/07/20 11:06:46;;;;;;;2.80;0.90;;;20.30;99.90;;;;;;5097573;27;20051;-80
2023/07/20 11:09:15;;;;;;;1.70;0.80;;;20.60;1.00;;;;;;5102896;27;20039;-80
2023/07/20 11:11:43;;;;;;;2.80;0.82;;;20.50;93.10;;;;;;5088025;27;20092;-80
2023/07/20 11:14:31;;;;;;;1.23;0.88;;;20.80;99.90;;;;;;5089563;27;20115;-80
2023/07/20 11:17:14;;;;;;;2.40;0.80;;;20.80;99.90;;;;;;5108738;27;20198;-80
2023/07/20 11:19:40;;;;;;;1.38;0.98;;;20.40;99.90;;;;;;5091619;27;20049;-80
2023/07/20 11:22:10;;;;;;;2.08;0.90;;;20.40;99.90;;;;;;5096139;27;20042;-80
2023/07/20 11:24:40;;;;;;;1.77;0.88;;;20.40;99.90;;;;;;5100838;27;20034;-80
2023/07/20 11:27:06;;;;;;;4.20;0.75;;;20.30;99.90;;;;;;5090279;27;20030;-80
2023/07/20 11:29:31;;;;;;;1.98;0.90;;;20.40;99.90;;;;;;5112948;27;20398;-80
2023/07/20 11:32:00;;;;;;;1.85;0.90;;;20.30;99.90;;;;;;5120316;27;20397;-80
2023/07/20 11:34:27;;;;;;;1.90;1.00;;;20.60;8.40;;;;;;5098128;27;20046;-80
2023/07/20 11:36:54;;;;;;;1.73;0.73;;;20.90;64.00;;;;;;5111351;27;20055;-80
2023/07/20 11:39:22;;;;;;;1.98;1.10;;;21.10;99.90;;;;;;5098700;27;20034;-80
2023/07/20 11:41:49;;;;;;;3.08;1.13;;;21.00;99.90;;;;;;5105955;27;20058;-80
2023/07/20 11:44:26;;;;;;;1.45;0.88;;;21.50;1.00;;;;;;5093448;27;20056;-80
2023/07/20 11:47:03;;;;;;;2.35;1.00;;;22.00;1.00;;;;;;5082028;27;20128;-80
2023/07/20 11:49:30;;;;;;;2.33;1.00;;;21.20;1.00;;;;;;5118614;27;20055;-80
2023/07/20 11:51:57;;;;;;;2.78;1.02;;;21.20;1.00;;;;;;5087506;27;20061;-80
2023/07/20 11:54:23;;;;;;;3.28;0.98;;;20.80;99.90;;;;;;5093064;27;20039;-80
2023/07/20 11:56:54;;;;;;;1.58;0.80;;;20.70;99.90;;;;;;5092306;27;20035;-79
2023/07/20 11:59:20;;;;;;;1.20;0.80;;;20.70;1.00;;;;;;5093885;27;20416;-80
2023/07/20 12:01:45;;;;;;;1.35;1.05;;;20.50;99.90;;;;;;5121548;27;20043;-80
2023/07/20 12:04:11;;;;;;;1.75;1.05;;;20.80;99.90;;;;;;5095066;27;20035;-80
2023/07/20 12:06:39;;;;;;;2.70;0.80;;;21.00;1.00;;;;;;5092787;27;20218;-80
2023/07/20 12:09:05;;;;;;;1.08;0.95;;;21.50;99.90;;;;;;5096011;27;20039;-80
2023/07/20 12:11:32;;;;;;;3.33;1.13;;;20.90;99.90;;;;;;5100855;27;20035;-80
2023/07/20 12:13:58;;;;;;;3.65;1.20;;;20.40;99.90;;;;;;5112397;27;20042;-80
2023/07/20 12:16:27;;;;;;;2.40;0.88;;;20.00;99.90;;;;;;5087357;27;20043;-79
2023/07/20 12:19:19;;;;;;;3.22;1.52;;;20.00;1.00;;;;;;5123016;27;20077;-80
2023/07/20 12:21:45;;;;;;;2.05;1.10;;;19.80;1.00;;;;;;5111634;27;20410;-80
2023/07/20 12:24:11;;;;;;;2.28;1.00;;;19.60;1.50;;;;;;5098330;27;20405;-80
2023/07/20 12:27:00;;;;;;;1.58;0.82;;;19.60;99.90;;;;;;5103980;27;20437;-80
2023/07/20 12:29:43;;;;;;;1.40;0.90;;;19.70;47.00;;;;;;5114110;27;20039;-80
2023/07/20 12:32:08;;;;;;;3.92;1.10;;;20.00;99.90;;;;;;5092524;27;20051;-80
2023/07/20 12:34:34;;;;;;;2.83;1.17;;;20.60;1.00;;;;;;5093076;27;20297;-80
2023/07/20 12:37:05;;;;;;;1.58;0.90;;;21.70;99.90;;;;;;5092030;27;20066;-80
2023/07/20 12:39:47;;;;;;;2.58;1.17;;;22.00;99.90;;;;;;5086954;27;20070;-80
2023/07/20 12:42:15;;;;;;;1.50;1.10;;;21.50;99.90;;;;;;5119639;27;20224;-80
2023/07/20 12:44:41;;;;;;;2.50;1.30;;;21.30;99.90;;;;;;5123047;27;20608;-80
2023/07/20 12:47:07;;;;;;;1.92;1.08;;;21.10;99.90;;;;;;5098010;27;20073;-80
2023/07/20 12:49:32;;;;;;;2.63;0.90;;;21.90;99.90;;;;;;5130475;27;20039;-80